createdAt,value
2019-05-09T00:00:01.033Z,75.33
2019-05-09T00:05:33.518Z,75.47
2019-05-09T00:08:07.286Z,75.42
2019-05-09T00:10:39.329Z,75.40
2019-05-09T00:13:13.729Z,75.49
2019-05-09T00:15:47.380Z,75.52
2019-05-09T00:18:14.409Z,75.90
2019-05-09T00:23:54.972Z,75.72
2019-05-09T00:26:23.527Z,75.97
2019-05-09T00:32:16.721Z,75.74
2019-05-09T00:35:03.949Z,75.79
2019-05-09T00:37:50.288Z,75.88
2019-05-09T00:40:37.376Z,76.18
2019-05-09T00:43:04.214Z,76.03
2019-05-09T00:48:53.228Z,76.16
2019-05-09T00:51:25.898Z,76.04
2019-05-09T00:53:53.660Z,76.04
2019-05-09T00:56:32.970Z,76.14
2019-05-09T00:59:06.027Z,76.29
2019-05-09T01:01:54.239Z,76.10
2019-05-09T01:04:27.154Z,76.29
2019-05-09T01:06:54.190Z,76.26
2019-05-09T01:09:33.394Z,75.96
2019-05-09T01:12:07.013Z,75.36
2019-05-09T01:14:34.069Z,74.76
2019-05-09T01:17:13.581Z,75.26
2019-05-09T01:19:46.959Z,75.13
2019-05-09T01:22:13.719Z,75.52
2019-05-09T01:24:40.496Z,75.52
2019-05-09T01:27:07.242Z,74.66
2019-05-09T01:29:33.995Z,74.89
2019-05-09T01:34:55.077Z,75.52
2019-05-09T01:37:23.719Z,75.66
2019-05-09T01:40:00.309Z,75.94
2019-05-09T01:42:27.042Z,76.04
2019-05-09T01:44:53.819Z,76.57
2019-05-09T01:47:20.584Z,76.76
2019-05-09T01:49:47.338Z,76.65
2019-05-09T01:52:14.137Z,76.59
2019-05-09T01:57:19.608Z,76.96
2019-05-09T01:59:46.375Z,76.99
2019-05-09T02:02:14.239Z,77.18
2019-05-09T02:04:53.315Z,77.31
2019-05-09T02:07:26.618Z,77.43
2019-05-09T02:09:53.983Z,77.33
2019-05-09T02:12:33.778Z,77.47
2019-05-09T02:20:44.416Z,77.60
2019-05-09T02:23:11.196Z,77.50
2019-05-09T02:25:37.958Z,77.63
2019-05-09T02:28:04.720Z,77.77
2019-05-09T02:30:31.511Z,77.58
2019-05-09T02:32:58.259Z,77.61
2019-05-09T02:35:28.483Z,77.78
2019-05-09T02:37:59.557Z,77.69
2019-05-09T02:40:28.500Z,77.83
2019-05-09T02:43:00.887Z,78.05
2019-05-09T02:48:09.437Z,78.26
2019-05-09T02:50:43.226Z,78.31
2019-05-09T02:53:09.984Z,78.27
2019-05-09T02:55:38.755Z,78.50
2019-05-09T02:58:08.263Z,77.98
2019-05-09T03:00:54.119Z,78.15
2019-05-09T03:03:23.747Z,77.86
2019-05-09T03:05:50.490Z,78.05
2019-05-09T03:08:19.168Z,78.26
2019-05-09T03:10:48.802Z,78.18
2019-05-09T03:13:14.371Z,78.22
2019-05-09T03:15:41.630Z,78.15
2019-05-09T03:18:09.179Z,78.03
2019-05-09T03:21:01.763Z,77.94
2019-05-09T03:23:28.822Z,78.15
2019-05-09T03:25:58.525Z,78.05
2019-05-09T03:28:49.233Z,78.21
2019-05-09T03:31:19.703Z,78.37
2019-05-09T03:33:49.754Z,78.45
2019-05-09T03:36:14.304Z,78.51
2019-05-09T03:38:41.056Z,78.42
2019-05-09T03:41:08.527Z,78.38
2019-05-09T03:43:37.548Z,78.22
2019-05-09T03:46:12.135Z,78.44
2019-05-09T03:48:42.981Z,78.53
2019-05-09T03:51:09.735Z,78.73
2019-05-09T03:53:37.959Z,79.03
2019-05-09T03:56:07.953Z,78.89
2019-05-09T03:58:34.843Z,79.19
2019-05-09T04:01:01.633Z,79.33
2019-05-09T04:03:28.371Z,79.77
2019-05-09T04:06:01.940Z,79.95
2019-05-09T04:08:23.715Z,80.06
2019-05-09T04:10:50.976Z,80.25
2019-05-09T04:13:18.095Z,80.29
2019-05-09T04:15:44.913Z,80.40
2019-05-09T04:18:11.669Z,80.41
2019-05-09T04:20:38.431Z,80.22
2019-05-09T04:23:05.209Z,80.06
2019-05-09T04:25:33.859Z,80.04
2019-05-09T04:28:01.608Z,80.21
2019-05-09T04:30:28.368Z,80.40
2019-05-09T04:32:55.109Z,80.36
2019-05-09T04:35:21.888Z,80.48
2019-05-09T04:37:48.651Z,80.50
2019-05-09T04:40:17.669Z,80.66
2019-05-09T04:42:44.526Z,80.61
2019-05-09T04:45:28.298Z,80.58
2019-05-09T04:47:57.626Z,80.69
2019-05-09T04:50:25.016Z,80.46
2019-05-09T04:52:51.942Z,80.51
2019-05-09T04:55:24.085Z,80.66
2019-05-09T04:57:50.825Z,80.68
2019-05-09T05:00:23.078Z,80.52
2019-05-09T05:02:50.480Z,80.42
2019-05-09T05:05:18.060Z,80.28
2019-05-09T05:07:45.026Z,80.04
2019-05-09T05:10:11.778Z,79.89
2019-05-09T05:12:38.572Z,79.68
2019-05-09T05:15:07.865Z,79.49
2019-05-09T05:17:34.009Z,79.37
2019-05-09T05:20:01.394Z,79.73
2019-05-09T05:22:38.749Z,79.29
2019-05-09T05:25:05.672Z,78.98
2019-05-09T05:27:32.382Z,79.15
2019-05-09T05:29:59.132Z,78.69
2019-05-09T05:32:38.564Z,78.90
2019-05-09T05:35:21.194Z,78.77
2019-05-09T05:37:47.956Z,78.94
2019-05-09T05:40:14.768Z,79.29
2019-05-09T05:42:41.525Z,79.02
2019-05-09T05:45:08.293Z,78.29
2019-05-09T05:47:48.390Z,77.76
2019-05-09T05:50:14.452Z,76.92
2019-05-09T05:52:41.214Z,75.32
2019-05-09T05:55:07.978Z,74.69
2019-05-09T05:57:34.759Z,73.88
2019-05-09T06:00:01.516Z,72.58
2019-05-09T06:02:28.323Z,73.12
2019-05-09T06:04:55.103Z,70.82
2019-05-09T06:07:21.896Z,71.44
2019-05-09T06:09:48.627Z,72.50
2019-05-09T06:12:15.401Z,71.41
2019-05-09T06:14:42.155Z,71.38
2019-05-09T06:17:08.953Z,71.50
2019-05-09T06:19:37.944Z,71.80
2019-05-09T06:22:04.335Z,72.81
2019-05-09T06:24:31.094Z,72.35
2019-05-09T06:26:58.572Z,72.30
2019-05-09T06:29:28.277Z,72.99
2019-05-09T06:31:54.162Z,73.49
2019-05-09T06:34:20.925Z,73.13
2019-05-09T06:36:48.955Z,72.84
2019-05-09T06:39:17.896Z,71.30
2019-05-09T06:41:44.543Z,72.33
2019-05-09T06:44:49.161Z,71.01
2019-05-09T06:47:29.009Z,71.82
2019-05-09T06:49:57.414Z,72.20
2019-05-09T06:52:24.315Z,72.49
2019-05-09T06:54:51.081Z,72.16
2019-05-09T06:57:18.724Z,71.07
2019-05-09T06:59:45.600Z,71.90
2019-05-09T07:02:24.687Z,72.34
2019-05-09T07:04:58.048Z,71.42
2019-05-09T07:07:38.686Z,72.69
2019-05-09T07:10:07.570Z,73.57
2019-05-09T07:12:34.330Z,73.54
2019-05-09T07:15:01.085Z,74.08
2019-05-09T07:17:31.807Z,74.98
2019-05-09T07:19:58.752Z,72.07
2019-05-09T07:22:44.498Z,73.04
2019-05-09T07:25:24.538Z,74.44
2019-05-09T07:27:51.301Z,71.04
2019-05-09T07:30:40.450Z,70.39
2019-05-09T07:33:33.035Z,71.47
2019-05-09T07:35:59.780Z,73.99
2019-05-09T07:38:32.928Z,71.21
2019-05-09T07:41:00.177Z,72.46
2019-05-09T07:43:28.191Z,73.72
2019-05-09T07:46:10.044Z,72.23
2019-05-09T07:48:38.087Z,71.58
2019-05-09T07:51:04.993Z,70.64
2019-05-09T07:53:31.752Z,70.06
2019-05-09T07:55:58.486Z,68.07
2019-05-09T07:58:25.274Z,67.79
2019-05-09T08:00:52.026Z,67.97
2019-05-09T08:03:18.824Z,69.62
2019-05-09T08:05:47.583Z,67.38
2019-05-09T08:08:15.097Z,67.52
2019-05-09T08:10:41.887Z,68.05
2019-05-09T08:13:11.795Z,66.13
2019-05-09T08:15:38.389Z,66.42
2019-05-09T08:18:05.264Z,67.06
2019-05-09T08:20:32.015Z,63.01
2019-05-09T08:23:02.108Z,64.84
2019-05-09T08:25:27.918Z,63.94
2019-05-09T08:27:54.890Z,63.86
2019-05-09T08:30:21.685Z,63.02
2019-05-09T08:32:48.468Z,60.84
2019-05-09T08:35:15.223Z,61.31
2019-05-09T08:37:42.032Z,60.32
2019-05-09T08:40:08.820Z,62.39
2019-05-09T08:42:37.145Z,61.72
2019-05-09T08:45:26.966Z,62.55
2019-05-09T08:47:48.739Z,61.88
2019-05-09T08:52:58.925Z,54.24
2019-05-09T08:55:27.794Z,52.39
2019-05-09T08:58:00.717Z,54.72
2019-05-09T09:00:28.276Z,52.09
2019-05-09T09:03:07.778Z,52.49
2019-05-09T09:05:44.413Z,53.49
2019-05-09T09:08:11.183Z,51.81
2019-05-09T09:10:38.645Z,52.97
2019-05-09T09:13:12.593Z,54.22
2019-05-09T09:18:18.130Z,52.80
2019-05-09T09:20:52.495Z,51.29
2019-05-09T09:23:19.121Z,51.67
2019-05-09T09:25:48.357Z,50.46
2019-05-09T09:28:20.541Z,52.17
2019-05-09T09:30:48.461Z,51.47
2019-05-09T09:33:22.298Z,52.19
2019-05-09T09:35:49.174Z,50.96
2019-05-09T09:38:23.469Z,51.38
2019-05-09T09:40:50.181Z,48.50
2019-05-09T09:43:17.669Z,47.23
2019-05-09T09:46:06.096Z,48.22
2019-05-09T09:48:29.745Z,46.21
2019-05-09T09:50:58.027Z,48.51
2019-05-09T09:53:34.937Z,47.28
2019-05-09T09:56:01.663Z,48.78
2019-05-09T09:58:28.300Z,49.48
2019-05-09T10:04:24.591Z,48.24
2019-05-09T10:06:53.074Z,49.17
2019-05-09T10:09:26.328Z,46.40
2019-05-09T10:11:56.675Z,45.73
2019-05-09T10:14:34.696Z,45.87
2019-05-09T10:17:21.591Z,44.25
2019-05-09T10:20:07.880Z,45.56
2019-05-09T10:22:34.624Z,45.92
2019-05-09T10:25:01.331Z,46.99
2019-05-09T10:27:28.462Z,46.08
2019-05-09T10:30:03.374Z,47.22
2019-05-09T10:32:29.979Z,46.68
2019-05-09T10:34:58.106Z,46.55
2019-05-09T10:37:31.323Z,46.26
2019-05-09T10:40:04.496Z,47.03
2019-05-09T10:42:50.604Z,44.73
2019-05-09T10:45:40.821Z,43.51
2019-05-09T10:48:12.039Z,41.74
2019-05-09T10:50:44.547Z,40.02
2019-05-09T10:53:17.978Z,38.47
2019-05-09T10:55:51.997Z,38.44
2019-05-09T10:58:20.234Z,37.32
2019-05-09T11:00:53.860Z,37.96
2019-05-09T11:03:33.450Z,38.16
2019-05-09T11:06:00.185Z,39.21
2019-05-09T11:08:28.656Z,38.69
2019-05-09T11:11:06.107Z,39.04
2019-05-09T11:13:40.194Z,40.32
2019-05-09T11:16:07.694Z,39.08
2019-05-09T11:18:45.080Z,39.32
2019-05-09T11:21:11.784Z,37.55
2019-05-09T11:23:39.302Z,34.96
2019-05-09T11:26:13.156Z,33.69
2019-05-09T11:28:39.877Z,32.48
2019-05-09T11:31:08.080Z,32.52
2019-05-09T11:33:41.653Z,33.53
2019-05-09T11:36:09.754Z,33.55
2019-05-09T11:38:49.575Z,35.39
2019-05-09T11:41:21.876Z,37.28
2019-05-09T11:43:48.849Z,36.51
2019-05-09T11:46:28.769Z,37.59
2019-05-09T11:49:02.013Z,39.63
2019-05-09T11:51:29.492Z,39.14
2019-05-09T11:54:09.131Z,39.81
2019-05-09T11:56:41.959Z,38.89
2019-05-09T11:59:08.699Z,39.61
2019-05-09T12:01:35.425Z,38.49
2019-05-09T12:04:02.088Z,38.33
2019-05-09T12:06:29.326Z,38.88
2019-05-09T12:09:08.585Z,38.80
2019-05-09T12:11:44.510Z,40.04
2019-05-09T12:14:20.771Z,40.99
2019-05-09T12:16:48.211Z,40.11
2019-05-09T12:19:25.698Z,41.32
2019-05-09T12:21:52.410Z,42.55
2019-05-09T12:24:19.140Z,44.94
2019-05-09T12:26:48.188Z,45.41
2019-05-09T12:29:20.784Z,47.40
2019-05-09T12:31:48.540Z,48.06
2019-05-09T12:34:27.669Z,49.01
2019-05-09T12:37:04.080Z,49.44
2019-05-09T12:39:30.732Z,49.60
2019-05-09T12:41:57.972Z,50.80
2019-05-09T12:44:35.712Z,52.61
2019-05-09T12:47:02.465Z,54.87
2019-05-09T12:49:29.231Z,55.82
2019-05-09T12:51:58.113Z,57.54
2019-05-09T12:54:30.626Z,57.05
2019-05-09T12:56:59.124Z,56.28
2019-05-09T12:59:46.530Z,56.93
2019-05-09T13:02:10.715Z,59.14
2019-05-09T13:04:38.194Z,61.71
2019-05-09T13:07:15.990Z,64.24
2019-05-09T13:09:42.694Z,65.15
2019-05-09T13:12:09.368Z,62.58
2019-05-09T13:14:38.034Z,63.17
2019-05-09T13:17:30.337Z,60.90
2019-05-09T13:19:58.552Z,60.31
2019-05-09T13:22:32.065Z,60.27
2019-05-09T13:24:59.783Z,54.27
2019-05-09T13:27:33.750Z,52.97
2019-05-09T13:30:00.489Z,49.63
2019-05-09T13:32:27.981Z,49.93
2019-05-09T13:35:06.178Z,46.57
2019-05-09T13:37:32.803Z,45.63
2019-05-09T13:39:59.571Z,42.05
2019-05-09T13:42:28.465Z,41.16
2019-05-09T13:45:05.293Z,40.46
2019-05-09T13:47:32.000Z,40.51
2019-05-09T13:49:59.217Z,39.80
2019-05-09T13:52:33.854Z,37.48
2019-05-09T13:55:00.521Z,39.53
2019-05-09T13:57:27.846Z,39.49
2019-05-09T14:00:01.717Z,38.00
2019-05-09T14:02:29.390Z,34.61
2019-05-09T14:05:09.002Z,35.71
2019-05-09T14:07:41.739Z,35.94
2019-05-09T14:10:10.249Z,36.30
2019-05-09T14:13:04.907Z,37.20
2019-05-09T14:15:21.742Z,36.24
2019-05-09T14:17:53.082Z,37.25
2019-05-09T14:20:23.513Z,36.08
2019-05-09T14:22:50.147Z,36.70
2019-05-09T14:25:19.620Z,35.72
2019-05-09T14:27:52.596Z,35.19
2019-05-09T14:30:27.758Z,34.14
2019-05-09T14:33:02.342Z,34.52
2019-05-09T14:35:29.043Z,34.00
2019-05-09T14:37:55.676Z,33.80
2019-05-09T14:40:41.789Z,33.46
2019-05-09T14:43:09.770Z,33.03
2019-05-09T14:45:43.538Z,31.15
2019-05-09T14:48:10.189Z,32.10
2019-05-09T14:50:38.155Z,32.52
2019-05-09T14:53:04.968Z,31.52
2019-05-09T14:55:31.514Z,30.91
2019-05-09T14:57:58.147Z,32.03
2019-05-09T15:00:24.781Z,32.97
2019-05-09T15:02:51.440Z,31.12
2019-05-09T15:05:18.838Z,31.32
2019-05-09T15:07:47.620Z,30.93
2019-05-09T15:10:18.827Z,30.57
2019-05-09T15:12:45.788Z,30.86
2019-05-09T15:15:12.504Z,33.17
2019-05-09T15:17:39.265Z,31.84
2019-05-09T15:20:08.868Z,32.30
2019-05-09T15:22:34.906Z,33.84
2019-05-09T15:25:01.584Z,34.37
2019-05-09T15:27:28.275Z,35.04
2019-05-09T15:29:55.002Z,33.08
2019-05-09T15:32:21.740Z,34.63
2019-05-09T15:34:48.475Z,31.60
2019-05-09T15:37:15.230Z,30.89
2019-05-09T15:39:41.864Z,33.13
2019-05-09T15:42:08.535Z,36.67
2019-05-09T15:44:35.196Z,36.69
2019-05-09T15:47:07.868Z,37.81
2019-05-09T15:49:34.660Z,38.57
2019-05-09T15:52:01.417Z,39.33
2019-05-09T15:54:29.450Z,39.86
2019-05-09T15:56:58.077Z,40.38
2019-05-09T15:59:24.883Z,41.33
2019-05-09T16:01:51.634Z,43.14
2019-05-09T16:04:18.339Z,46.83
2019-05-09T16:06:44.996Z,49.67
2019-05-09T16:09:12.150Z,53.64
2019-05-09T16:11:39.042Z,53.98
2019-05-09T16:14:07.542Z,55.89
2019-05-09T16:16:34.382Z,57.14
2019-05-09T16:19:01.137Z,57.53
2019-05-09T16:21:28.016Z,55.24
2019-05-09T16:23:54.745Z,56.44
2019-05-09T16:26:21.416Z,57.48
2019-05-09T16:28:48.773Z,57.40
2019-05-09T16:31:15.701Z,57.84
2019-05-09T16:33:42.352Z,59.80
2019-05-09T16:36:09.095Z,60.52
2019-05-09T16:38:43.037Z,60.83
2019-05-09T16:41:04.312Z,57.83
2019-05-09T16:43:31.063Z,55.70
2019-05-09T16:45:58.198Z,54.50
2019-05-09T16:48:25.082Z,50.58
2019-05-09T16:51:00.432Z,51.60
2019-05-09T16:53:20.278Z,49.19
2019-05-09T16:55:47.044Z,48.36
2019-05-09T16:58:13.738Z,47.79
2019-05-09T17:00:41.064Z,47.53
2019-05-09T17:03:08.136Z,47.53
2019-05-09T17:05:37.299Z,46.35
2019-05-09T17:08:03.471Z,47.50
2019-05-09T17:10:30.147Z,47.83
2019-05-09T17:12:58.286Z,48.67
2019-05-09T17:15:25.149Z,49.77
2019-05-09T17:17:51.838Z,50.74
2019-05-09T17:20:21.947Z,50.99
2019-05-09T17:23:14.350Z,51.54
2019-05-09T17:25:38.649Z,51.40
2019-05-09T17:28:05.364Z,52.89
2019-05-09T17:30:32.012Z,54.07
2019-05-09T17:32:58.738Z,54.89
2019-05-09T17:35:27.753Z,56.16
2019-05-09T17:37:54.062Z,57.01
2019-05-09T17:40:24.899Z,58.24
2019-05-09T17:42:51.670Z,58.35
2019-05-09T17:45:18.449Z,58.56
2019-05-09T17:47:45.236Z,58.36
2019-05-09T17:50:11.960Z,58.66
2019-05-09T17:52:38.676Z,58.76
2019-05-09T17:55:07.373Z,58.47
2019-05-09T17:57:33.982Z,58.70
2019-05-09T18:00:00.707Z,59.59
2019-05-09T18:02:28.167Z,59.73
2019-05-09T18:04:55.096Z,59.98
2019-05-09T18:07:21.853Z,60.12
2019-05-09T18:09:48.608Z,60.20
2019-05-09T18:12:15.308Z,60.46
2019-05-09T18:14:41.951Z,60.48
2019-05-09T18:17:08.601Z,60.81
2019-05-09T18:19:37.926Z,61.13
2019-05-09T18:22:04.054Z,61.09
2019-05-09T18:24:30.685Z,61.71
2019-05-09T18:26:58.185Z,62.14
2019-05-09T18:29:27.269Z,62.16
2019-05-09T18:32:13.221Z,62.57
2019-05-09T18:34:39.836Z,62.64
2019-05-09T18:37:07.988Z,62.68
2019-05-09T18:39:37.328Z,62.77
2019-05-09T18:42:03.455Z,63.30
2019-05-09T18:44:30.201Z,63.64
2019-05-09T18:46:57.688Z,63.81
2019-05-09T18:49:24.835Z,63.52
2019-05-09T18:52:02.597Z,63.30
2019-05-09T18:54:20.060Z,62.96
2019-05-09T18:56:46.714Z,63.24
2019-05-09T18:59:13.447Z,63.46
2019-05-09T19:01:40.072Z,63.94
2019-05-09T19:04:06.775Z,64.75
2019-05-09T19:06:33.504Z,65.56
2019-05-09T19:09:00.121Z,65.89
2019-05-09T19:11:26.814Z,65.98
2019-05-09T19:13:53.734Z,65.91
2019-05-09T19:16:42.710Z,63.97
2019-05-09T19:19:37.927Z,63.89
2019-05-09T19:22:20.301Z,62.35
2019-05-09T19:24:33.408Z,61.40
2019-05-09T19:27:00.072Z,60.51
2019-05-09T19:29:26.791Z,60.00
2019-05-09T19:31:53.445Z,58.64
2019-05-09T19:34:20.095Z,57.83
2019-05-09T19:36:46.757Z,56.81
2019-05-09T19:39:13.529Z,56.37
2019-05-09T19:41:40.278Z,56.36
2019-05-09T19:44:07.011Z,55.68
2019-05-09T19:46:33.765Z,56.10
2019-05-09T19:49:00.436Z,55.18
2019-05-09T19:51:27.161Z,55.22
2019-05-09T19:53:53.890Z,55.64
2019-05-09T19:56:20.530Z,55.54
2019-05-09T19:58:47.294Z,55.66
2019-05-09T20:01:14.028Z,56.51
2019-05-09T20:03:40.791Z,56.81
2019-05-09T20:06:07.407Z,56.63
2019-05-09T20:08:34.458Z,56.76
2019-05-09T20:11:20.730Z,57.13
2019-05-09T20:14:05.358Z,56.95
2019-05-09T20:16:33.270Z,56.73
2019-05-09T20:18:59.996Z,56.79
2019-05-09T20:21:26.628Z,55.93
2019-05-09T20:23:53.302Z,55.17
2019-05-09T20:26:20.383Z,55.05
2019-05-09T20:28:47.118Z,54.82
2019-05-09T20:31:13.865Z,55.29
2019-05-09T20:33:40.632Z,55.23
2019-05-09T20:36:07.375Z,55.60
2019-05-09T20:38:34.115Z,55.62
2019-05-09T20:41:00.854Z,55.33
2019-05-09T20:43:27.570Z,54.98
2019-05-09T20:45:54.230Z,54.58
2019-05-09T20:48:20.990Z,54.42
2019-05-09T20:50:47.651Z,54.62
2019-05-09T20:53:14.375Z,54.44
2019-05-09T20:55:41.010Z,54.73
2019-05-09T20:58:07.658Z,54.59
2019-05-09T21:00:34.299Z,54.70
2019-05-09T21:03:00.957Z,54.76
2019-05-09T21:05:27.646Z,55.01
2019-05-09T21:07:54.279Z,55.17
2019-05-09T21:10:26.074Z,55.08
2019-05-09T21:12:52.703Z,55.44
2019-05-09T21:15:19.319Z,55.17
2019-05-09T21:17:45.963Z,55.50
2019-05-09T21:20:12.683Z,55.54
2019-05-09T21:22:39.349Z,55.26
2019-05-09T21:25:06.006Z,55.67
2019-05-09T21:27:32.662Z,56.47
2019-05-09T21:29:59.367Z,57.27
2019-05-09T21:32:26.040Z,57.79
2019-05-09T21:34:52.767Z,58.94
2019-05-09T21:37:19.379Z,58.88
2019-05-09T21:39:46.021Z,59.12
2019-05-09T21:42:12.634Z,59.26
2019-05-09T21:44:39.269Z,58.32
2019-05-09T21:47:05.901Z,58.53
2019-05-09T21:49:32.618Z,58.59
2019-05-09T21:51:59.240Z,58.40
2019-05-09T21:54:25.896Z,57.87
2019-05-09T21:56:52.489Z,58.00
2019-05-09T21:59:19.094Z,58.06
2019-05-09T22:01:45.690Z,57.79
2019-05-09T22:04:12.283Z,58.35
2019-05-09T22:06:38.898Z,58.51
2019-05-09T22:09:07.885Z,59.06
2019-05-09T22:11:34.574Z,59.90
2019-05-09T22:14:01.195Z,60.09
2019-05-09T22:16:27.830Z,60.75
2019-05-09T22:18:54.420Z,61.45
2019-05-09T22:21:21.047Z,62.27
2019-05-09T22:23:55.823Z,62.40
2019-05-09T22:26:16.176Z,63.17
2019-05-09T22:28:42.876Z,63.29
2019-05-09T22:31:09.464Z,63.81
2019-05-09T22:33:36.078Z,63.94
2019-05-09T22:36:02.671Z,64.10
2019-05-09T22:38:29.296Z,64.16
2019-05-09T22:40:55.895Z,63.88
2019-05-09T22:43:22.499Z,63.52
2019-05-09T22:45:49.123Z,63.82
2019-05-09T22:48:15.821Z,64.22
2019-05-09T22:50:42.502Z,63.75
2019-05-09T22:53:09.112Z,63.82
2019-05-09T22:55:35.839Z,63.75
2019-05-09T22:58:02.550Z,64.00
2019-05-09T23:00:29.339Z,63.86
2019-05-09T23:02:55.946Z,64.19
2019-05-09T23:05:22.553Z,63.65
2019-05-09T23:07:51.925Z,63.75
2019-05-09T23:10:20.373Z,63.32
2019-05-09T23:12:46.978Z,63.32
2019-05-09T23:15:15.663Z,63.09
2019-05-09T23:17:42.260Z,63.57
2019-05-09T23:20:15.150Z,63.05
2019-05-09T23:22:41.776Z,63.38
2019-05-09T23:25:08.354Z,63.26
2019-05-09T23:27:34.951Z,63.33
2019-05-09T23:30:01.564Z,63.09
2019-05-09T23:32:40.620Z,62.96
2019-05-09T23:35:07.230Z,63.09
2019-05-09T23:37:33.841Z,63.51
2019-05-09T23:40:02.251Z,63.66
2019-05-09T23:42:28.846Z,63.88
2019-05-09T23:44:55.454Z,64.36
2019-05-09T23:47:22.082Z,64.51
2019-05-09T23:49:48.671Z,64.07
2019-05-09T23:52:15.286Z,64.29
2019-05-09T23:54:59.946Z,64.40
2019-05-09T23:57:44.715Z,64.56
